sensor_id;sensor_type;location;lat;lon;timestamp;pressure;altitude;pressure_sealevel;temperature;humidity
74242;BME280;62599;49.146;10.426;2023-01-24T00:00:41;97122.19;;;-0.08;100.00
74242;BME280;62599;49.146;10.426;2023-01-24T00:03:07;97117.94;;;-0.09;100.00
74242;BME280;62599;49.146;10.426;2023-01-24T00:05:39;97127.28;;;-0.07;100.00
74242;BME280;62599;49.146;10.426;2023-01-24T00:08:08;97124.63;;;-0.07;100.00
74242;BME280;62599;49.146;10.426;2023-01-24T00:10:34;97118.19;;;0.01;100.00
74242;BME280;62599;49.146;10.426;2023-01-24T00:13:00;97117.03;;;-0.03;100.00
74242;BME280;62599;49.146;10.426;2023-01-24T00:15:25;97116.44;;;-0.05;100.00
74242;BME280;62599;49.146;10.426;2023-01-24T00:17:50;97118.19;;;0.01;100.00
74242;BME280;62599;49.146;10.426;2023-01-24T00:20:16;97118.03;;;-0.04;100.00
74242;BME280;62599;49.146;10.426;2023-01-24T00:22:41;97111.50;;;-0.02;100.00
74242;BME280;62599;49.146;10.426;2023-01-24T00:25:07;97109.44;;;0.01;100.00
74242;BME280;62599;49.146;10.426;2023-01-24T00:27:32;97114.94;;;-0.01;100.00
74242;BME280;62599;49.146;10.426;2023-01-24T00:30:00;97113.59;;;-0.04;100.00
74242;BME280;62599;49.146;10.426;2023-01-24T00:32:26;97106.44;;;-0.03;100.00
74242;BME280;62599;49.146;10.426;2023-01-24T00:34:51;97115.03;;;-0.08;100.00
74242;BME280;62599;49.146;10.426;2023-01-24T00:37:17;97126.81;;;-0.04;100.00
74242;BME280;62599;49.146;10.426;2023-01-24T00:39:45;97118.53;;;-0.07;100.00
74242;BME280;62599;49.146;10.426;2023-01-24T00:42:10;97123.22;;;-0.09;100.00
74242;BME280;62599;49.146;10.426;2023-01-24T00:44:36;97125.28;;;-0.11;100.00
74242;BME280;62599;49.146;10.426;2023-01-24T00:47:01;97126.31;;;-0.12;100.00
74242;BME280;62599;49.146;10.426;2023-01-24T00:49:26;97130.22;;;-0.15;100.00
74242;BME280;62599;49.146;10.426;2023-01-24T00:51:52;97128.97;;;-0.12;100.00
74242;BME280;62599;49.146;10.426;2023-01-24T00:54:17;97127.81;;;-0.16;100.00
74242;BME280;62599;49.146;10.426;2023-01-24T00:56:42;97124.94;;;-0.15;100.00
74242;BME280;62599;49.146;10.426;2023-01-24T00:59:08;97124.56;;;-0.18;100.00
74242;BME280;62599;49.146;10.426;2023-01-24T01:01:37;97118.13;;;-0.22;100.00
74242;BME280;62599;49.146;10.426;2023-01-24T01:04:03;97131.06;;;-0.14;100.00
74242;BME280;62599;49.146;10.426;2023-01-24T01:06:28;97133.72;;;-0.14;100.00
74242;BME280;62599;49.146;10.426;2023-01-24T01:08:53;97133.91;;;-0.16;100.00
74242;BME280;62599;49.146;10.426;2023-01-24T01:11:19;97128.41;;;-0.14;100.00
74242;BME280;62599;49.146;10.426;2023-01-24T01:13:45;97122.06;;;-0.13;100.00
74242;BME280;62599;49.146;10.426;2023-01-24T01:16:16;97130.22;;;-0.15;100.00
74242;BME280;62599;49.146;10.426;2023-01-24T01:18:43;97122.28;;;-0.15;100.00
74242;BME280;62599;49.146;10.426;2023-01-24T01:21:14;97113.78;;;-0.17;100.00
74242;BME280;62599;49.146;10.426;2023-01-24T01:23:39;97139.22;;;-0.16;100.00
74242;BME280;62599;49.146;10.426;2023-01-24T01:26:07;97131.88;;;-0.14;100.00
74242;BME280;62599;49.146;10.426;2023-01-24T01:28:33;97129.66;;;-0.17;100.00
74242;BME280;62599;49.146;10.426;2023-01-24T01:30:58;97134.16;;;-0.17;100.00
74242;BME280;62599;49.146;10.426;2023-01-24T01:33:24;97118.72;;;-0.20;100.00
74242;BME280;62599;49.146;10.426;2023-01-24T01:35:51;97114.22;;;-0.20;100.00
74242;BME280;62599;49.146;10.426;2023-01-24T01:38:17;97114.47;;;-0.21;100.00
74242;BME280;62599;49.146;10.426;2023-01-24T01:40:43;97122.53;;;-0.16;100.00
74242;BME280;62599;49.146;10.426;2023-01-24T01:43:28;97120.47;;;-0.14;100.00
74242;BME280;62599;49.146;10.426;2023-01-24T01:46:17;97125.16;;;-0.16;100.00
74242;BME280;62599;49.146;10.426;2023-01-24T01:48:50;97134.59;;;-0.20;100.00
74242;BME280;62599;49.146;10.426;2023-01-24T01:51:23;97133.00;;;-0.21;100.00
74242;BME280;62599;49.146;10.426;2023-01-24T01:53:55;97140.81;;;-0.15;100.00
74242;BME280;62599;49.146;10.426;2023-01-24T01:56:32;97147.41;;;-0.17;100.00
74242;BME280;62599;49.146;10.426;2023-01-24T01:59:04;97147.41;;;-0.17;100.00
74242;BME280;62599;49.146;10.426;2023-01-24T02:01:32;97143.69;;;-0.16;100.00
74242;BME280;62599;49.146;10.426;2023-01-24T02:04:22;97144.50;;;-0.16;100.00
74242;BME280;62599;49.146;10.426;2023-01-24T02:07:09;97150.16;;;-0.12;100.00
74242;BME280;62599;49.146;10.426;2023-01-24T02:09:43;97139.00;;;-0.14;100.00
74242;BME280;62599;49.146;10.426;2023-01-24T02:12:34;97138.84;;;-0.19;100.00
74242;BME280;62599;49.146;10.426;2023-01-24T02:15:21;97133.81;;;-0.21;100.00
74242;BME280;62599;49.146;10.426;2023-01-24T02:18:07;97136.91;;;-0.24;100.00
74242;BME280;62599;49.146;10.426;2023-01-24T02:20:48;97142.41;;;-0.26;100.00
74242;BME280;62599;49.146;10.426;2023-01-24T02:26:13;97148.28;;;-0.23;100.00
74242;BME280;62599;49.146;10.426;2023-01-24T02:28:53;97147.84;;;-0.20;100.00
74242;BME280;62599;49.146;10.426;2023-01-24T02:31:19;97166.00;;;-0.24;100.00
74242;BME280;62599;49.146;10.426;2023-01-24T02:33:45;97156.22;;;-0.23;100.00
74242;BME280;62599;49.146;10.426;2023-01-24T02:39:02;97172.00;;;-0.29;100.00
74242;BME280;62599;49.146;10.426;2023-01-24T02:41:36;97168.50;;;-0.29;100.00
74242;BME280;62599;49.146;10.426;2023-01-24T02:44:09;97166.22;;;-0.26;100.00
74242;BME280;62599;49.146;10.426;2023-01-24T02:46:36;97182.34;;;-0.27;100.00
74242;BME280;62599;49.146;10.426;2023-01-24T02:49:02;97186.03;;;-0.28;100.00
74242;BME280;62599;49.146;10.426;2023-01-24T02:51:27;97189.91;;;-0.31;100.00
74242;BME280;62599;49.146;10.426;2023-01-24T02:54:11;97176.13;;;-0.33;100.00
74242;BME280;62599;49.146;10.426;2023-01-24T02:56:36;97181.41;;;-0.33;100.00
74242;BME280;62599;49.146;10.426;2023-01-24T02:59:20;97179.22;;;-0.36;100.00
74242;BME280;62599;49.146;10.426;2023-01-24T03:01:46;97180.22;;;-0.37;100.00
74242;BME280;62599;49.146;10.426;2023-01-24T03:04:11;97189.56;;;-0.34;100.00
74242;BME280;62599;49.146;10.426;2023-01-24T03:06:38;97184.72;;;-0.37;100.00
74242;BME280;62599;49.146;10.426;2023-01-24T03:09:03;97182.31;;;-0.39;100.00
74242;BME280;62599;49.146;10.426;2023-01-24T03:11:46;97180.03;;;-0.35;100.00
74242;BME280;62599;49.146;10.426;2023-01-24T03:14:13;97184.34;;;-0.41;100.00
74242;BME280;62599;49.146;10.426;2023-01-24T03:16:57;97175.84;;;-0.43;100.00
74242;BME280;62599;49.146;10.426;2023-01-24T03:19:41;97176.41;;;-0.41;100.00
74242;BME280;62599;49.146;10.426;2023-01-24T03:22:25;97173.19;;;-0.43;100.00
74242;BME280;62599;49.146;10.426;2023-01-24T03:25:08;97177.44;;;-0.42;100.00
74242;BME280;62599;49.146;10.426;2023-01-24T03:27:53;97177.44;;;-0.42;100.00
74242;BME280;62599;49.146;10.426;2023-01-24T03:30:36;97173.78;;;-0.41;100.00
74242;BME280;62599;49.146;10.426;2023-01-24T03:33:20;97176.66;;;-0.42;100.00
74242;BME280;62599;49.146;10.426;2023-01-24T03:36:05;97189.09;;;-0.43;100.00
74242;BME280;62599;49.146;10.426;2023-01-24T03:38:32;97184.22;;;-0.46;100.00
74242;BME280;62599;49.146;10.426;2023-01-24T03:41:16;97176.50;;;-0.47;100.00
74242;BME280;62599;49.146;10.426;2023-01-24T03:43:41;97179.16;;;-0.47;100.00
74242;BME280;62599;49.146;10.426;2023-01-24T03:46:09;97184.44;;;-0.47;100.00
74242;BME280;62599;49.146;10.426;2023-01-24T03:48:34;97184.00;;;-0.44;100.00
74242;BME280;62599;49.146;10.426;2023-01-24T03:51:02;97171.81;;;-0.45;100.00
74242;BME280;62599;49.146;10.426;2023-01-24T03:53:47;97176.28;;;-0.46;100.00
74242;BME280;62599;49.146;10.426;2023-01-24T03:56:12;97181.50;;;-0.39;100.00
74242;BME280;62599;49.146;10.426;2023-01-24T03:58:37;97181.13;;;-0.43;100.00
74242;BME280;62599;49.146;10.426;2023-01-24T04:01:06;97172.97;;;-0.41;100.00
74242;BME280;62599;49.146;10.426;2023-01-24T04:03:31;97180.09;;;-0.42;100.00
74242;BME280;62599;49.146;10.426;2023-01-24T04:05:58;97181.50;;;-0.39;100.00
74242;BME280;62599;49.146;10.426;2023-01-24T04:08:23;97167.91;;;-0.43;100.00
74242;BME280;62599;49.146;10.426;2023-01-24T04:10:49;97177.91;;;-0.45;100.00
74242;BME280;62599;49.146;10.426;2023-01-24T04:13:15;97173.78;;;-0.41;100.00
74242;BME280;62599;49.146;10.426;2023-01-24T04:15:40;97168.91;;;-0.44;100.00
74242;BME280;62599;49.146;10.426;2023-01-24T04:18:06;97167.09;;;-0.43;100.00
74242;BME280;62599;49.146;10.426;2023-01-24T04:20:34;97167.66;;;-0.41;100.00
74242;BME280;62599;49.146;10.426;2023-01-24T04:23:01;97171.56;;;-0.44;100.00
74242;BME280;62599;49.146;10.426;2023-01-24T04:25:27;97166.59;;;-0.52;100.00
74242;BME280;62599;49.146;10.426;2023-01-24T04:27:52;97163.50;;;-0.49;100.00
74242;BME280;62599;49.146;10.426;2023-01-24T04:30:18;97158.81;;;-0.47;100.00
74242;BME280;62599;49.146;10.426;2023-01-24T04:32:46;97151.53;;;-0.52;100.00
74242;BME280;62599;49.146;10.426;2023-01-24T04:35:18;97158.44;;;-0.51;100.00
74242;BME280;62599;49.146;10.426;2023-01-24T04:37:43;97156.38;;;-0.49;100.00
74242;BME280;62599;49.146;10.426;2023-01-24T04:40:09;97164.09;;;-0.47;100.00
74242;BME280;62599;49.146;10.426;2023-01-24T04:42:37;97159.59;;;-0.46;100.00
74242;BME280;62599;49.146;10.426;2023-01-24T04:45:02;97164.09;;;-0.47;100.00
74242;BME280;62599;49.146;10.426;2023-01-24T04:47:28;97158.81;;;-0.47;100.00
74242;BME280;62599;49.146;10.426;2023-01-24T04:49:53;97165.47;;;-0.44;100.00
74242;BME280;62599;49.146;10.426;2023-01-24T04:52:18;97166.88;;;-0.42;100.00
74242;BME280;62599;49.146;10.426;2023-01-24T04:54:44;97163.53;;;-0.37;100.00
74242;BME280;62599;49.146;10.426;2023-01-24T04:57:11;97172.53;;;-0.38;100.00
74242;BME280;62599;49.146;10.426;2023-01-24T04:59:37;97174.22;;;-0.44;100.00
74242;BME280;62599;49.146;10.426;2023-01-24T05:02:02;97170.56;;;-0.43;100.00
74242;BME280;62599;49.146;10.426;2023-01-24T05:04:28;97177.91;;;-0.45;100.00
74242;BME280;62599;49.146;10.426;2023-01-24T05:06:54;97176.84;;;-0.44;100.00
74242;BME280;62599;49.146;10.426;2023-01-24T05:09:19;97184.44;;;-0.47;100.00
74242;BME280;62599;49.146;10.426;2023-01-24T05:11:45;97181.78;;;-0.47;100.00
74242;BME280;62599;49.146;10.426;2023-01-24T05:14:10;97190.56;;;-0.47;100.00
74242;BME280;62599;49.146;10.426;2023-01-24T05:16:36;97190.91;;;-0.43;100.00
74242;BME280;62599;49.146;10.426;2023-01-24T05:19:03;97191.13;;;-0.45;100.00
74242;BME280;62599;49.146;10.426;2023-01-24T05:21:28;97196.06;;;-0.49;100.00
74242;BME280;62599;49.146;10.426;2023-01-24T05:23:53;97197.47;;;-0.46;100.00
74242;BME280;62599;49.146;10.426;2023-01-24T05:26:21;97197.09;;;-0.50;100.00
74242;BME280;62599;49.146;10.426;2023-01-24T05:28:47;97205.41;;;-0.46;100.00
74242;BME280;62599;49.146;10.426;2023-01-24T05:31:13;97204.72;;;-0.41;100.00
74242;BME280;62599;49.146;10.426;2023-01-24T05:33:39;97211.25;;;-0.44;100.00
74242;BME280;62599;49.146;10.426;2023-01-24T05:36:13;97210.25;;;-0.43;100.00
74242;BME280;62599;49.146;10.426;2023-01-24T05:38:39;97220.59;;;-0.41;100.00
74242;BME280;62599;49.146;10.426;2023-01-24T05:41:07;97225.09;;;-0.42;100.00
74242;BME280;62599;49.146;10.426;2023-01-24T05:43:33;97228.41;;;-0.46;100.00
74242;BME280;62599;49.146;10.426;2023-01-24T05:46:02;97219.88;;;-0.49;100.00
74242;BME280;62599;49.146;10.426;2023-01-24T05:48:28;97219.56;;;-0.40;100.00
74242;BME280;62599;49.146;10.426;2023-01-24T05:51:02;97229.34;;;-0.41;100.00
74242;BME280;62599;49.146;10.426;2023-01-24T05:53:30;97219.78;;;-0.42;100.00
74242;BME280;62599;49.146;10.426;2023-01-24T05:56:01;97226.69;;;-0.41;100.00
74242;BME280;62599;49.146;10.426;2023-01-24T05:58:29;97221.63;;;-0.42;100.00
74242;BME280;62599;49.146;10.426;2023-01-24T06:00:55;97221.03;;;-0.44;100.00
74242;BME280;62599;49.146;10.426;2023-01-24T06:03:21;97227.41;;;-0.34;100.00
74242;BME280;62599;49.146;10.426;2023-01-24T06:05:53;97224.50;;;-0.44;100.00
74242;BME280;62599;49.146;10.426;2023-01-24T06:08:19;97224.97;;;-0.47;100.00
74242;BME280;62599;49.146;10.426;2023-01-24T06:10:45;97228.03;;;-0.50;100.00
74242;BME280;62599;49.146;10.426;2023-01-24T06:13:11;97226.66;;;-0.53;100.00
74242;BME280;62599;49.146;10.426;2023-01-24T06:15:37;97232.91;;;-0.47;100.00
74242;BME280;62599;49.146;10.426;2023-01-24T06:18:03;97228.03;;;-0.50;100.00
74242;BME280;62599;49.146;10.426;2023-01-24T06:20:29;97230.31;;;-0.54;100.00
74242;BME280;62599;49.146;10.426;2023-01-24T06:23:04;97229.72;;;-0.56;100.00
74242;BME280;62599;49.146;10.426;2023-01-24T06:25:31;97228.94;;;-0.56;100.00
74242;BME280;62599;49.146;10.426;2023-01-24T06:27:57;97237.00;;;-0.51;100.00
74242;BME280;62599;49.146;10.426;2023-01-24T06:30:23;97235.38;;;-0.52;100.00
74242;BME280;62599;49.146;10.426;2023-01-24T06:38:21;97237.00;;;-0.51;100.00
74242;BME280;62599;49.146;10.426;2023-01-24T06:40:51;97236.63;;;-0.55;100.00
74242;BME280;62599;49.146;10.426;2023-01-24T06:43:18;97239.06;;;-0.53;100.00
74242;BME280;62599;49.146;10.426;2023-01-24T06:45:43;97244.78;;;-0.56;100.00
74242;BME280;62599;49.146;10.426;2023-01-24T06:48:09;97240.91;;;-0.54;100.00
74242;BME280;62599;49.146;10.426;2023-01-24T06:50:34;97241.84;;;-0.48;100.00
74242;BME280;62599;49.146;10.426;2023-01-24T06:53:12;97241.28;;;-0.50;100.00
74242;BME280;62599;49.146;10.426;2023-01-24T06:55:39;97243.91;;;-0.50;100.00
74242;BME280;62599;49.146;10.426;2023-01-24T06:58:08;97245.75;;;-0.51;100.00
74242;BME280;62599;49.146;10.426;2023-01-24T07:00:34;97251.25;;;-0.52;100.00
74242;BME280;62599;49.146;10.426;2023-01-24T07:03:04;97250.22;;;-0.51;100.00
74242;BME280;62599;49.146;10.426;2023-01-24T07:05:32;97257.97;;;-0.50;100.00
74242;BME280;62599;49.146;10.426;2023-01-24T07:07:58;97255.38;;;-0.56;100.00
74242;BME280;62599;49.146;10.426;2023-01-24T07:10:23;97266.34;;;-0.53;100.00
74242;BME280;62599;49.146;10.426;2023-01-24T07:12:49;97269.94;;;-0.47;100.00
74242;BME280;62599;49.146;10.426;2023-01-24T07:15:14;97265.66;;;-0.48;100.00
74242;BME280;62599;49.146;10.426;2023-01-24T07:17:43;97261.63;;;-0.51;100.00
74242;BME280;62599;49.146;10.426;2023-01-24T07:20:09;97266.69;;;-0.49;100.00
74242;BME280;62599;49.146;10.426;2023-01-24T07:22:37;97274.78;;;-0.44;100.00
74242;BME280;62599;49.146;10.426;2023-01-24T07:25:05;97270.50;;;-0.45;100.00
74242;BME280;62599;49.146;10.426;2023-01-24T07:27:31;97274.41;;;-0.47;100.00
74242;BME280;62599;49.146;10.426;2023-01-24T07:29:56;97284.56;;;-0.44;100.00
74242;BME280;62599;49.146;10.426;2023-01-24T07:32:22;97280.53;;;-0.47;100.00
74242;BME280;62599;49.146;10.426;2023-01-24T07:34:47;97275.59;;;-0.43;100.00
74242;BME280;62599;49.146;10.426;2023-01-24T07:37:13;97275.25;;;-0.47;100.00
74242;BME280;62599;49.146;10.426;2023-01-24T07:39:38;97281.69;;;-0.43;100.00
74242;BME280;62599;49.146;10.426;2023-01-24T07:42:04;97280.66;;;-0.42;100.00
74242;BME280;62599;49.146;10.426;2023-01-24T07:44:29;97286.38;;;-0.45;100.00
74242;BME280;62599;49.146;10.426;2023-01-24T07:46:54;97285.34;;;-0.44;100.00
74242;BME280;62599;49.146;10.426;2023-01-24T07:49:20;97292.06;;;-0.41;100.00
74242;BME280;62599;49.146;10.426;2023-01-24T07:51:45;97297.16;;;-0.40;100.00
74242;BME280;62599;49.146;10.426;2023-01-24T07:54:16;97295.66;;;-0.36;100.00
74242;BME280;62599;49.146;10.426;2023-01-24T07:56:44;97299.31;;;-0.37;100.00
74242;BME280;62599;49.146;10.426;2023-01-24T07:59:09;97302.56;;;-0.35;100.00
74242;BME280;62599;49.146;10.426;2023-01-24T08:01:34;97300.97;;;-0.36;100.00
74242;BME280;62599;49.146;10.426;2023-01-24T08:04:00;97302.94;;;-0.31;100.00
74242;BME280;62599;49.146;10.426;2023-01-24T08:06:25;97314.09;;;-0.29;100.00
74242;BME280;62599;49.146;10.426;2023-01-24T08:08:51;97308.00;;;-0.30;100.00
74242;BME280;62599;49.146;10.426;2023-01-24T08:11:16;97313.28;;;-0.30;100.00
74242;BME280;62599;49.146;10.426;2023-01-24T08:13:46;97319.19;;;-0.28;100.00
74242;BME280;62599;49.146;10.426;2023-01-24T08:16:12;97311.81;;;-0.26;100.00
74242;BME280;62599;49.146;10.426;2023-01-24T08:18:38;97321.84;;;-0.28;100.00
74242;BME280;62599;49.146;10.426;2023-01-24T08:21:05;97327.69;;;-0.26;100.00
74242;BME280;62599;49.146;10.426;2023-01-24T08:23:31;97320.22;;;-0.29;100.00
74242;BME280;62599;49.146;10.426;2023-01-24T08:26:00;97323.81;;;-0.23;100.00
74242;BME280;62599;49.146;10.426;2023-01-24T08:28:26;97325.66;;;-0.23;100.00
74242;BME280;62599;49.146;10.426;2023-01-24T08:30:52;97336.97;;;-0.16;100.00
74242;BME280;62599;49.146;10.426;2023-01-24T08:33:17;97340.44;;;-0.16;100.00
74242;BME280;62599;49.146;10.426;2023-01-24T08:35:47;97345.28;;;-0.13;100.00
74242;BME280;62599;49.146;10.426;2023-01-24T08:38:14;97343.06;;;-0.16;100.00
74242;BME280;62599;49.146;10.426;2023-01-24T08:40:39;97334.75;;;-0.19;100.00
74242;BME280;62599;49.146;10.426;2023-01-24T08:43:05;97341.47;;;-0.17;100.00
74242;BME280;62599;49.146;10.426;2023-01-24T08:45:30;97340.66;;;-0.17;100.00
74242;BME280;62599;49.146;10.426;2023-01-24T08:47:56;97339.84;;;-0.18;100.00
74242;BME280;62599;49.146;10.426;2023-01-24T08:50:21;97347.56;;;-0.16;100.00
74242;BME280;62599;49.146;10.426;2023-01-24T08:52:47;97341.03;;;-0.14;100.00
74242;BME280;62599;49.146;10.426;2023-01-24T08:55:13;97342.63;;;-0.13;100.00
74242;BME280;62599;49.146;10.426;2023-01-24T08:57:38;97342.88;;;-0.14;100.00
74242;BME280;62599;49.146;10.426;2023-01-24T09:00:04;97348.91;;;-0.07;100.00
74242;BME280;62599;49.146;10.426;2023-01-24T09:02:30;97348.28;;;-0.09;100.00
74242;BME280;62599;49.146;10.426;2023-01-24T09:04:57;97348.22;;;-0.03;100.00
74242;BME280;62599;49.146;10.426;2023-01-24T09:07:26;97350.44;;;0.01;100.00
74242;BME280;62599;49.146;10.426;2023-01-24T09:09:51;97348.44;;;-0.04;100.00
74242;BME280;62599;49.146;10.426;2023-01-24T09:12:16;97356.53;;;0.01;100.00
74242;BME280;62599;49.146;10.426;2023-01-24T09:14:42;97348.59;;;0.01;100.00
74242;BME280;62599;49.146;10.426;2023-01-24T09:17:07;97362.47;;;0.15;100.00
74242;BME280;62599;49.146;10.426;2023-01-24T09:19:35;97361.06;;;0.12;100.00
74242;BME280;62599;49.146;10.426;2023-01-24T09:22:01;97363.72;;;0.12;100.00
74242;BME280;62599;49.146;10.426;2023-01-24T09:24:26;97356.34;;;0.14;100.00
74242;BME280;62599;49.146;10.426;2023-01-24T09:26:51;97366.88;;;0.21;100.00
74242;BME280;62599;49.146;10.426;2023-01-24T09:29:20;97369.75;;;0.19;100.00
74242;BME280;62599;49.146;10.426;2023-01-24T09:31:47;97376.28;;;0.17;100.00
74242;BME280;62599;49.146;10.426;2023-01-24T09:34:13;97367.91;;;0.20;100.00
74242;BME280;62599;49.146;10.426;2023-01-24T09:36:38;97377.38;;;0.28;100.00
74242;BME280;62599;49.146;10.426;2023-01-24T09:39:04;97369.06;;;0.24;100.00
74242;BME280;62599;49.146;10.426;2023-01-24T09:42:03;97377.03;;;0.24;100.00
74242;BME280;62599;49.146;10.426;2023-01-24T09:44:43;97380.34;;;0.19;100.00
74242;BME280;62599;49.146;10.426;2023-01-24T09:50:03;97376.66;;;0.20;100.00
74242;BME280;62599;49.146;10.426;2023-01-24T09:55:12;97377.75;;;0.31;100.00
74242;BME280;62599;49.146;10.426;2023-01-24T09:57:48;97379.34;;;0.32;100.00
74242;BME280;62599;49.146;10.426;2023-01-24T10:00:18;97379.34;;;0.32;100.00
74242;BME280;62599;49.146;10.426;2023-01-24T10:02:48;97377.66;;;0.38;100.00
74242;BME280;62599;49.146;10.426;2023-01-24T10:05:15;97380.16;;;0.51;100.00
74242;BME280;62599;49.146;10.426;2023-01-24T10:07:51;97379.13;;;0.52;100.00
74242;BME280;62599;49.146;10.426;2023-01-24T10:10:42;97383.41;;;0.65;100.00
74242;BME280;62599;49.146;10.426;2023-01-24T10:16:18;97370.66;;;0.74;100.00
74242;BME280;62599;49.146;10.426;2023-01-24T10:23:58;97374.59;;;0.83;100.00
74242;BME280;62599;49.146;10.426;2023-01-24T10:26:46;97383.47;;;0.77;100.00
74242;BME280;62599;49.146;10.426;2023-01-24T10:29:18;97374.13;;;0.86;100.00
74242;BME280;62599;49.146;10.426;2023-01-24T10:34:25;97371.72;;;0.84;99.97
74242;BME280;62599;49.146;10.426;2023-01-24T10:36:55;97368.75;;;0.92;99.79
74242;BME280;62599;49.146;10.426;2023-01-24T10:39:24;97364.69;;;1.02;100.00
74242;BME280;62599;49.146;10.426;2023-01-24T10:41:50;97362.06;;;1.02;99.55
74242;BME280;62599;49.146;10.426;2023-01-24T10:44:26;97369.19;;;1.01;99.18
74242;BME280;62599;49.146;10.426;2023-01-24T10:49:34;97360.47;;;1.24;99.51
74242;BME280;62599;49.146;10.426;2023-01-24T10:52:19;97361.53;;;1.35;99.25
74242;BME280;62599;49.146;10.426;2023-01-24T10:54:53;97362.22;;;1.42;99.60
74242;BME280;62599;49.146;10.426;2023-01-24T10:57:27;97364.97;;;1.47;99.58
74242;BME280;62599;49.146;10.426;2023-01-24T10:59:54;97362.09;;;1.25;96.68
74242;BME280;62599;49.146;10.426;2023-01-24T11:02:22;97357.13;;;1.29;97.34
74242;BME280;62599;49.146;10.426;2023-01-24T11:05:15;97362.09;;;1.13;96.78
74242;BME280;62599;49.146;10.426;2023-01-24T11:07:45;97362.75;;;0.97;97.53
74242;BME280;62599;49.146;10.426;2023-01-24T11:10:28;97356.88;;;0.95;97.75
74242;BME280;62599;49.146;10.426;2023-01-24T11:40:41;97319.13;;;0.81;99.53
74242;BME280;62599;49.146;10.426;2023-01-24T11:59:09;97305.63;;;0.83;99.88
74242;BME280;62599;49.146;10.426;2023-01-24T12:01:42;97310.22;;;0.76;100.00
74242;BME280;62599;49.146;10.426;2023-01-24T12:10:53;97289.38;;;0.79;100.00
74242;BME280;62599;49.146;10.426;2023-01-24T12:13:35;97291.47;;;0.77;100.00
74242;BME280;62599;49.146;10.426;2023-01-24T12:21:40;97279.91;;;0.83;100.00
74242;BME280;62599;49.146;10.426;2023-01-24T12:24:13;97278.22;;;0.89;100.00
74242;BME280;62599;49.146;10.426;2023-01-24T12:26:44;97275.91;;;0.81;100.00
74242;BME280;62599;49.146;10.426;2023-01-24T12:29:13;97283.63;;;0.82;100.00
74242;BME280;62599;49.146;10.426;2023-01-24T12:34:56;97273.38;;;0.86;100.00
74242;BME280;62599;49.146;10.426;2023-01-24T12:43:17;97277.41;;;0.88;100.00
74242;BME280;62599;49.146;10.426;2023-01-24T12:45:52;97273.00;;;0.82;100.00
74242;BME280;62599;49.146;10.426;2023-01-24T12:48:40;97273.59;;;0.84;100.00
74242;BME280;62599;49.146;10.426;2023-01-24T12:51:26;97280.75;;;0.84;100.00
74242;BME280;62599;49.146;10.426;2023-01-24T12:54:17;97281.22;;;0.81;100.00
74242;BME280;62599;49.146;10.426;2023-01-24T12:59:35;97280.38;;;0.68;100.00
74242;BME280;62599;49.146;10.426;2023-01-24T13:07:32;97285.09;;;0.66;100.00
74242;BME280;62599;49.146;10.426;2023-01-24T13:10:22;97295.56;;;0.61;100.00
74242;BME280;62599;49.146;10.426;2023-01-24T13:12:51;97288.31;;;0.57;100.00
74242;BME280;62599;49.146;10.426;2023-01-24T13:15:23;97286.00;;;0.60;100.00
74242;BME280;62599;49.146;10.426;2023-01-24T13:20:43;97286.59;;;0.62;100.00
74242;BME280;62599;49.146;10.426;2023-01-24T13:28:30;97297.06;;;0.57;100.00
74242;BME280;62599;49.146;10.426;2023-01-24T13:33:32;97306.06;;;0.56;100.00
74242;BME280;62599;49.146;10.426;2023-01-24T13:36:04;97299.59;;;0.52;100.00
74242;BME280;62599;49.146;10.426;2023-01-24T13:38:39;97301.09;;;0.48;100.00
74242;BME280;62599;49.146;10.426;2023-01-24T13:41:15;97304.75;;;0.47;100.00
74242;BME280;62599;49.146;10.426;2023-01-24T13:51:44;97306.84;;;0.45;100.00
74242;BME280;62599;49.146;10.426;2023-01-24T13:59:37;97308.31;;;0.41;100.00
74242;BME280;62599;49.146;10.426;2023-01-24T14:02:25;97309.13;;;0.41;100.00
74242;BME280;62599;49.146;10.426;2023-01-24T14:04:54;97311.53;;;0.43;100.00
74242;BME280;62599;49.146;10.426;2023-01-24T14:07:29;97310.72;;;0.42;100.00
74242;BME280;62599;49.146;10.426;2023-01-24T14:09:59;97312.00;;;0.40;100.00
74242;BME280;62599;49.146;10.426;2023-01-24T14:12:26;97309.81;;;0.37;100.00
74242;BME280;62599;49.146;10.426;2023-01-24T14:15:02;97304.72;;;0.35;100.00
74242;BME280;62599;49.146;10.426;2023-01-24T14:17:45;97302.31;;;0.34;100.00
74242;BME280;62599;49.146;10.426;2023-01-24T14:23:00;97298.63;;;0.35;100.00
74242;BME280;62599;49.146;10.426;2023-01-24T14:26:11;97308.41;;;0.34;100.00
74242;BME280;62599;49.146;10.426;2023-01-24T14:28:36;97298.50;;;0.30;100.00
74242;BME280;62599;49.146;10.426;2023-01-24T14:31:28;97297.22;;;0.32;100.00
74242;BME280;62599;49.146;10.426;2023-01-24T14:34:13;97299.41;;;0.35;100.00
74242;BME280;62599;49.146;10.426;2023-01-24T14:36:43;97298.63;;;0.35;100.00
74242;BME280;62599;49.146;10.426;2023-01-24T14:39:24;97287.47;;;0.33;100.00
74242;BME280;62599;49.146;10.426;2023-01-24T14:42:01;97294.38;;;0.34;100.00
74242;BME280;62599;49.146;10.426;2023-01-24T14:44:34;97299.66;;;0.34;100.00
74242;BME280;62599;49.146;10.426;2023-01-24T14:47:20;97295.41;;;0.33;100.00
74242;BME280;62599;49.146;10.426;2023-01-24T14:49:53;97300.69;;;0.33;100.00
74242;BME280;62599;49.146;10.426;2023-01-24T14:52:40;97296.66;;;0.30;100.00
74242;BME280;62599;49.146;10.426;2023-01-24T14:55:36;97297.09;;;0.27;100.00
74242;BME280;62599;49.146;10.426;2023-01-24T14:58:27;97295.94;;;0.23;100.00
74242;BME280;62599;49.146;10.426;2023-01-24T15:00:56;97303.66;;;0.24;100.00
74242;BME280;62599;49.146;10.426;2023-01-24T15:03:24;97303.09;;;0.22;100.00
74242;BME280;62599;49.146;10.426;2023-01-24T15:05:56;97301.44;;;0.21;100.00
74242;BME280;62599;49.146;10.426;2023-01-24T15:08:23;97305.38;;;0.19;100.00